createdAt,value
2017-12-22T00:00:48.140Z,7.20
2017-12-22T00:03:16.512Z,7.85
2017-12-22T00:05:44.000Z,8.25
2017-12-22T00:08:12.267Z,6.60
2017-12-22T00:10:39.752Z,5.45
2017-12-22T00:13:07.252Z,6.60
2017-12-22T00:15:45.551Z,5.37
2017-12-22T00:18:13.115Z,7.12
2017-12-22T00:20:41.328Z,6.55
2017-12-22T00:23:08.809Z,4.78
2017-12-22T00:25:37.113Z,4.47
2017-12-22T00:28:04.596Z,4.85
2017-12-22T00:30:32.100Z,4.45
2017-12-22T00:33:00.348Z,4.12
2017-12-22T00:35:29.370Z,5.70
2017-12-22T00:37:57.616Z,6.65
2017-12-22T00:40:25.115Z,5.55
2017-12-22T00:42:53.362Z,5.10
2017-12-22T00:45:20.848Z,4.90
2017-12-22T00:47:49.124Z,5.18
2017-12-22T00:50:17.375Z,4.97
2017-12-22T00:52:44.879Z,3.95
2017-12-22T00:55:12.364Z,5.93
2017-12-22T00:57:39.867Z,4.28
2017-12-22T01:00:07.357Z,4.82
2017-12-22T01:02:34.859Z,5.05
2017-12-22T01:05:02.340Z,4.78
2017-12-22T01:07:29.877Z,6.15
2017-12-22T01:09:57.355Z,4.50
2017-12-22T01:12:24.836Z,4.22
2017-12-22T01:14:53.116Z,4.72
2017-12-22T01:17:26.979Z,4.90
2017-12-22T01:19:54.484Z,6.20
2017-12-22T01:22:22.730Z,6.35
2017-12-22T01:24:50.228Z,4.93
2017-12-22T01:27:17.706Z,5.32
2017-12-22T01:29:45.212Z,4.45
2017-12-22T01:32:12.691Z,5.47
2017-12-22T01:34:40.955Z,4.53
2017-12-22T01:37:08.435Z,5.37
2017-12-22T01:39:36.706Z,3.95
2017-12-22T01:42:04.955Z,5.15
2017-12-22T01:44:32.431Z,6.15
2017-12-22T01:47:00.704Z,4.97
2017-12-22T01:49:28.188Z,4.97
2017-12-22T01:51:55.687Z,5.12
2017-12-22T01:54:23.179Z,4.37
2017-12-22T01:56:50.691Z,4.40
2017-12-22T01:59:18.180Z,5.82
2017-12-22T02:01:45.894Z,6.90
2017-12-22T02:04:13.372Z,4.62
2017-12-22T02:06:40.872Z,5.22
2017-12-22T02:09:08.364Z,7.37
2017-12-22T02:11:35.876Z,6.47
2017-12-22T02:14:03.355Z,7.93
2017-12-22T02:16:30.844Z,7.15
2017-12-22T02:18:58.344Z,6.95
2017-12-22T02:21:25.830Z,7.95
2017-12-22T02:23:53.333Z,9.57
2017-12-22T02:26:20.851Z,8.80
2017-12-22T02:28:48.353Z,10.20
2017-12-22T02:31:15.827Z,7.37
2017-12-22T02:33:43.328Z,7.25
2017-12-22T02:36:10.818Z,9.23
2017-12-22T02:38:38.332Z,8.50
2017-12-22T02:41:05.837Z,9.23
2017-12-22T02:43:33.316Z,7.53
2017-12-22T02:46:00.821Z,8.02
2017-12-22T02:48:29.084Z,7.55
2017-12-22T02:50:56.583Z,8.38
2017-12-22T02:53:24.830Z,7.15
2017-12-22T02:55:52.347Z,6.87
2017-12-22T02:58:19.823Z,7.65
2017-12-22T03:00:47.327Z,10.10
2017-12-22T03:03:15.581Z,4.85
2017-12-22T03:05:43.063Z,7.53
2017-12-22T03:08:11.327Z,7.47
2017-12-22T03:10:38.811Z,8.07
2017-12-22T03:13:06.319Z,8.02
2017-12-22T03:15:33.803Z,7.15
2017-12-22T03:18:01.308Z,11.40
2017-12-22T03:20:28.795Z,8.63
2017-12-22T03:22:56.300Z,9.25
2017-12-22T03:25:24.552Z,8.25
2017-12-22T03:27:52.027Z,8.02
2017-12-22T03:30:20.305Z,10.45
2017-12-22T03:32:48.552Z,10.27
2017-12-22T03:35:16.056Z,9.30
2017-12-22T03:37:44.304Z,10.38
2017-12-22T03:40:11.811Z,9.95
2017-12-22T03:42:39.300Z,11.55
2017-12-22T03:45:06.812Z,13.30
2017-12-22T03:47:34.311Z,11.00
2017-12-22T03:50:01.812Z,15.02
2017-12-22T03:52:30.063Z,10.93
2017-12-22T03:54:57.556Z,13.20
2017-12-22T03:57:25.823Z,13.93
2017-12-22T03:59:54.072Z,12.70
2017-12-22T04:02:21.582Z,11.18
2017-12-22T04:04:49.071Z,18.62
2017-12-22T04:07:16.571Z,16.17
2017-12-22T04:09:44.053Z,12.70
2017-12-22T04:12:12.317Z,12.13
2017-12-22T04:14:40.562Z,12.50
2017-12-22T04:17:08.047Z,15.45
2017-12-22T04:19:36.319Z,13.40
2017-12-22T04:22:03.807Z,15.50
2017-12-22T04:24:31.304Z,15.60
2017-12-22T04:26:58.787Z,11.77
2017-12-22T04:29:26.292Z,12.95
2017-12-22T04:31:55.211Z,15.32
2017-12-22T04:34:22.688Z,14.32
2017-12-22T04:36:50.188Z,14.35
2017-12-22T04:39:18.448Z,15.20
2017-12-22T04:41:46.720Z,13.93
2017-12-22T04:44:14.203Z,17.42
2017-12-22T04:46:41.703Z,14.85
2017-12-22T04:49:09.184Z,13.38
2017-12-22T04:51:36.698Z,15.50
2017-12-22T04:54:04.183Z,19.10
2017-12-22T04:56:31.668Z,18.20
2017-12-22T04:58:59.175Z,15.93
2017-12-22T05:01:26.660Z,17.30
2017-12-22T05:03:54.159Z,22.37
2017-12-22T05:06:22.411Z,14.10
2017-12-22T05:08:49.919Z,16.37
2017-12-22T05:11:17.630Z,15.32
2017-12-22T05:13:45.143Z,21.50
2017-12-22T05:16:12.853Z,15.73
2017-12-22T05:18:40.335Z,18.77
2017-12-22T05:21:07.836Z,19.00
2017-12-22T05:23:35.557Z,14.48
2017-12-22T05:26:03.055Z,17.05
2017-12-22T05:28:30.547Z,12.02
2017-12-22T05:30:58.056Z,13.65
2017-12-22T05:33:26.312Z,14.52
2017-12-22T05:35:53.819Z,14.98
2017-12-22T05:38:21.302Z,21.48
2017-12-22T05:40:48.780Z,20.92
2017-12-22T05:43:16.288Z,13.25
2017-12-22T05:45:43.770Z,21.40
2017-12-22T05:48:11.276Z,15.05
2017-12-22T05:50:39.524Z,16.23
2017-12-22T05:53:07.028Z,13.52
2017-12-22T05:55:34.508Z,19.70
2017-12-22T05:58:02.011Z,10.88
2017-12-22T06:00:29.496Z,13.80
2017-12-22T06:02:57.767Z,13.65
2017-12-22T06:05:26.011Z,12.25
2017-12-22T06:07:53.492Z,12.23
2017-12-22T06:10:20.996Z,11.52
2017-12-22T06:12:48.482Z,14.07
2017-12-22T06:15:15.991Z,15.30
2017-12-22T06:17:44.236Z,13.85
2017-12-22T06:20:11.735Z,12.52
2017-12-22T06:22:39.220Z,13.45
2017-12-22T06:25:06.707Z,13.98
2017-12-22T06:27:34.205Z,12.95
2017-12-22T06:30:02.456Z,14.27
2017-12-22T06:32:29.963Z,12.55
2017-12-22T06:34:57.447Z,13.73
2017-12-22T06:37:24.952Z,13.18
2017-12-22T06:39:53.199Z,11.20
2017-12-22T06:42:20.703Z,11.25
2017-12-22T06:44:48.203Z,10.15
2017-12-22T06:47:16.475Z,10.20
2017-12-22T06:49:43.968Z,10.45
2017-12-22T06:52:11.459Z,9.07
2017-12-22T06:54:38.955Z,9.70
2017-12-22T06:57:06.449Z,7.68
2017-12-22T06:59:34.718Z,7.05
2017-12-22T07:02:02.202Z,7.70
2017-12-22T07:04:30.475Z,9.27
2017-12-22T07:06:58.719Z,8.52
2017-12-22T07:09:26.224Z,6.75
2017-12-22T07:11:53.708Z,7.57
2017-12-22T07:14:21.197Z,5.37
2017-12-22T07:16:48.695Z,6.50
2017-12-22T07:19:16.247Z,6.85
2017-12-22T07:21:43.762Z,8.60
2017-12-22T07:24:11.322Z,9.05
2017-12-22T07:26:38.833Z,6.03
2017-12-22T07:29:07.074Z,9.25
2017-12-22T07:31:34.573Z,9.32
2017-12-22T07:34:02.056Z,9.63
2017-12-22T07:36:29.568Z,11.10
2017-12-22T07:38:57.824Z,9.60
2017-12-22T07:41:25.308Z,10.45
2017-12-22T07:43:53.634Z,11.88
2017-12-22T07:46:21.123Z,10.70
2017-12-22T07:48:49.766Z,9.98
2017-12-22T07:51:17.253Z,10.65
2017-12-22T07:53:44.991Z,11.05
2017-12-22T07:56:12.559Z,10.20
2017-12-22T07:58:40.076Z,10.25
2017-12-22T08:01:08.327Z,10.45
2017-12-22T08:03:35.829Z,10.32
2017-12-22T08:06:03.339Z,12.65
2017-12-22T08:08:33.455Z,12.32
2017-12-22T08:11:01.695Z,9.82
2017-12-22T08:13:29.476Z,12.85
2017-12-22T08:15:56.982Z,9.10
2017-12-22T08:18:24.468Z,10.90
2017-12-22T08:20:52.731Z,12.30
2017-12-22T08:23:20.980Z,9.45
2017-12-22T08:25:48.480Z,8.70
2017-12-22T08:28:16.723Z,7.62
2017-12-22T08:30:44.249Z,8.80
2017-12-22T08:33:11.731Z,10.25
2017-12-22T08:35:39.220Z,8.60
2017-12-22T08:38:07.491Z,8.30
2017-12-22T08:40:35.744Z,7.50
2017-12-22T08:43:03.252Z,8.20
2017-12-22T08:45:30.728Z,7.22
2017-12-22T08:47:58.229Z,8.98
2017-12-22T08:50:25.720Z,7.70
2017-12-22T08:52:53.987Z,8.70
2017-12-22T08:55:22.231Z,7.97
2017-12-22T08:57:49.731Z,9.73
2017-12-22T09:00:17.980Z,9.32
2017-12-22T09:02:45.465Z,7.07
2017-12-22T09:05:13.732Z,7.97
2017-12-22T09:07:41.980Z,10.38
2017-12-22T09:10:09.479Z,13.15
2017-12-22T09:12:37.723Z,7.72
2017-12-22T09:15:05.234Z,8.38
2017-12-22T09:17:32.711Z,8.45
2017-12-22T09:20:00.214Z,9.05
2017-12-22T09:22:27.691Z,9.45
2017-12-22T09:24:55.940Z,10.65
2017-12-22T09:27:24.223Z,8.43
2017-12-22T09:29:51.699Z,9.70
2017-12-22T09:32:19.959Z,9.98
2017-12-22T09:34:47.431Z,8.25
2017-12-22T09:37:15.692Z,7.78
2017-12-22T09:39:43.955Z,7.70
2017-12-22T09:42:11.452Z,8.07
2017-12-22T09:44:39.695Z,8.30
2017-12-22T09:47:07.172Z,9.43
2017-12-22T09:49:34.671Z,7.32
2017-12-22T09:52:02.196Z,12.25
2017-12-22T09:54:30.464Z,5.85
2017-12-22T09:56:58.180Z,6.80
2017-12-22T09:59:25.680Z,7.65
2017-12-22T10:01:53.159Z,8.85
2017-12-22T10:04:21.403Z,9.48
2017-12-22T10:06:48.899Z,7.10
2017-12-22T10:09:17.144Z,7.28
2017-12-22T10:11:44.640Z,6.43
2017-12-22T10:14:12.889Z,8.60
2017-12-22T10:16:40.389Z,8.50
2017-12-22T10:19:08.983Z,7.25
2017-12-22T10:21:36.543Z,6.75
2017-12-22T10:24:05.185Z,8.30
2017-12-22T10:26:33.476Z,7.32
2017-12-22T10:29:03.940Z,8.38
2017-12-22T10:31:31.471Z,7.03
2017-12-22T10:33:59.698Z,8.40
2017-12-22T10:36:27.182Z,9.70
2017-12-22T10:38:54.959Z,7.57
2017-12-22T10:41:23.507Z,6.62
2017-12-22T10:43:51.020Z,7.97
2017-12-22T10:46:19.264Z,9.80
2017-12-22T10:48:46.769Z,12.37
2017-12-22T10:51:14.263Z,10.95
2017-12-22T10:53:44.684Z,9.88
2017-12-22T10:56:12.184Z,8.20
2017-12-22T10:58:39.659Z,7.10
2017-12-22T11:01:07.159Z,8.65
2017-12-22T11:03:34.636Z,7.22
2017-12-22T11:06:02.181Z,9.45
2017-12-22T11:08:29.655Z,7.65
2017-12-22T11:10:57.387Z,9.48
2017-12-22T11:13:24.983Z,8.23
2017-12-22T11:15:52.459Z,6.55
2017-12-22T11:18:19.971Z,7.20
2017-12-22T11:20:47.451Z,6.75
2017-12-22T11:23:15.724Z,10.35
2017-12-22T11:25:43.206Z,8.30
2017-12-22T11:28:10.884Z,7.07
2017-12-22T11:30:39.136Z,6.00
2017-12-22T11:33:06.624Z,8.00
2017-12-22T11:35:34.883Z,7.07
2017-12-22T11:38:02.365Z,6.65
2017-12-22T11:40:30.633Z,8.00
2017-12-22T11:42:59.171Z,4.90
2017-12-22T11:45:26.675Z,6.68
2017-12-22T11:47:54.939Z,7.55
2017-12-22T11:50:22.423Z,5.05
2017-12-22T11:52:49.966Z,8.05
2017-12-22T11:55:17.452Z,4.45
2017-12-22T11:57:44.951Z,6.82
2017-12-22T12:00:12.428Z,5.22
2017-12-22T12:02:39.928Z,6.05
2017-12-22T12:05:07.419Z,7.18
2017-12-22T12:07:34.935Z,5.35
2017-12-22T12:10:03.272Z,5.20
2017-12-22T12:12:30.749Z,6.57
2017-12-22T12:14:58.247Z,4.65
2017-12-22T12:17:25.731Z,4.78
2017-12-22T12:19:53.227Z,5.62
2017-12-22T12:22:20.718Z,5.20
2017-12-22T12:24:48.200Z,3.80
2017-12-22T12:27:15.696Z,4.00
2017-12-22T12:29:43.176Z,5.10
2017-12-22T12:32:11.439Z,4.60
2017-12-22T12:34:38.919Z,3.95
2017-12-22T12:37:07.183Z,3.37
2017-12-22T12:39:35.436Z,2.90
2017-12-22T12:42:03.547Z,4.43
2017-12-22T12:44:31.788Z,4.45
2017-12-22T12:46:59.309Z,5.60
2017-12-22T12:49:26.796Z,4.35
2017-12-22T12:51:55.040Z,4.15
2017-12-22T12:54:22.543Z,3.70
2017-12-22T12:56:50.023Z,8.57
2017-12-22T12:59:17.523Z,3.42
2017-12-22T13:01:45.012Z,3.35
2017-12-22T13:04:12.523Z,2.45
2017-12-22T13:06:40.024Z,3.25
2017-12-22T13:09:07.503Z,3.60
2017-12-22T13:11:36.687Z,1.87
2017-12-22T13:14:04.172Z,2.87
2017-12-22T13:16:31.676Z,3.30
2017-12-22T13:18:59.159Z,1.90
2017-12-22T13:21:26.664Z,3.85
2017-12-22T13:23:54.983Z,3.15
2017-12-22T13:26:22.479Z,2.37
2017-12-22T13:28:49.964Z,3.80
2017-12-22T13:31:18.227Z,2.83
2017-12-22T13:33:45.711Z,2.72
2017-12-22T13:36:13.194Z,3.55
2017-12-22T13:38:40.695Z,4.85
2017-12-22T13:41:08.180Z,4.72
2017-12-22T13:43:36.447Z,5.10
2017-12-22T13:46:04.696Z,4.40
2017-12-22T13:48:32.189Z,5.75
2017-12-22T13:51:00.431Z,4.62
2017-12-22T13:53:27.938Z,5.20
2017-12-22T13:55:55.422Z,5.22
2017-12-22T13:58:22.906Z,5.85
2017-12-22T14:00:50.408Z,4.35
2017-12-22T14:03:18.668Z,5.15
2017-12-22T14:05:46.941Z,5.20
2017-12-22T14:08:15.205Z,5.43
2017-12-22T14:10:43.042Z,4.30
2017-12-22T14:13:10.523Z,3.30
2017-12-22T14:15:38.027Z,3.90
2017-12-22T14:18:05.560Z,4.55
2017-12-22T14:20:33.056Z,3.20
2017-12-22T14:23:00.584Z,4.37
2017-12-22T14:25:28.835Z,4.55
2017-12-22T14:27:56.327Z,6.55
2017-12-22T14:30:24.575Z,2.87
2017-12-22T14:32:52.079Z,3.03
2017-12-22T14:35:19.560Z,2.10
2017-12-22T14:37:47.072Z,3.22
2017-12-22T14:40:14.551Z,3.87
2017-12-22T14:42:42.803Z,3.42
2017-12-22T14:45:10.307Z,2.25
2017-12-22T14:47:37.796Z,2.12
2017-12-22T14:50:05.298Z,3.22
2017-12-22T14:52:33.584Z,2.37
2017-12-22T14:55:01.052Z,2.97
2017-12-22T14:57:28.531Z,3.10
2017-12-22T14:59:56.027Z,2.55
2017-12-22T15:02:23.520Z,3.12
2017-12-22T15:04:51.792Z,3.45
2017-12-22T15:07:19.283Z,3.55
2017-12-22T15:09:46.760Z,1.80
2017-12-22T15:12:14.260Z,3.10
2017-12-22T15:14:42.504Z,3.35
2017-12-22T15:17:10.007Z,2.85
2017-12-22T15:19:38.256Z,3.90
2017-12-22T15:22:05.752Z,2.95
2017-12-22T15:24:33.240Z,3.67
2017-12-22T15:27:00.742Z,3.28
2017-12-22T15:29:28.996Z,2.85
2017-12-22T15:31:56.479Z,3.67
2017-12-22T15:34:24.742Z,4.00
2017-12-22T15:36:52.229Z,4.68
2017-12-22T15:39:20.540Z,3.45
2017-12-22T15:41:48.036Z,2.30
2017-12-22T15:44:19.342Z,5.30
2017-12-22T15:46:46.920Z,3.92
2017-12-22T15:49:14.411Z,2.25
2017-12-22T15:51:41.891Z,4.85
2017-12-22T15:54:10.144Z,4.85
2017-12-22T15:56:39.016Z,2.35
2017-12-22T15:59:07.344Z,7.30
2017-12-22T16:01:35.612Z,7.25
2017-12-22T16:04:04.867Z,2.58
2017-12-22T16:06:34.091Z,4.45
2017-12-22T16:09:01.588Z,2.78
2017-12-22T16:11:29.098Z,3.83
2017-12-22T16:13:56.586Z,6.80
2017-12-22T16:16:24.069Z,3.97
2017-12-22T16:18:51.575Z,2.90
2017-12-22T16:21:19.094Z,4.30
2017-12-22T16:23:46.595Z,3.90
2017-12-22T16:26:14.071Z,2.85
2017-12-22T16:28:41.575Z,2.62
2017-12-22T16:31:09.068Z,2.35
2017-12-22T16:33:36.639Z,2.83
2017-12-22T16:36:04.119Z,4.10
2017-12-22T16:38:32.410Z,3.47
2017-12-22T16:41:00.691Z,10.23
2017-12-22T16:43:28.935Z,2.15
2017-12-22T16:45:56.457Z,5.05
2017-12-22T16:48:23.937Z,6.22
2017-12-22T16:50:51.436Z,1.98
2017-12-22T16:53:19.692Z,5.68
2017-12-22T16:55:47.204Z,5.80
2017-12-22T16:58:14.723Z,5.57
2017-12-22T17:00:43.009Z,2.45
2017-12-22T17:03:11.320Z,3.08
2017-12-22T17:05:38.847Z,3.25
2017-12-22T17:08:07.116Z,3.50
2017-12-22T17:10:35.363Z,13.70
2017-12-22T17:13:02.859Z,2.10
2017-12-22T17:15:31.100Z,2.30
2017-12-22T17:17:58.647Z,2.30
2017-12-22T17:20:26.119Z,5.03
2017-12-22T17:22:53.600Z,2.90
2017-12-22T17:25:21.109Z,2.50
2017-12-22T17:27:48.591Z,4.72
2017-12-22T17:30:16.092Z,3.30
2017-12-22T17:32:44.364Z,2.83
2017-12-22T17:35:12.668Z,3.05
2017-12-22T17:37:40.157Z,3.30
2017-12-22T17:40:07.656Z,4.05
2017-12-22T17:42:35.903Z,2.95
2017-12-22T17:45:03.408Z,2.22
2017-12-22T17:47:30.895Z,4.47
2017-12-22T17:49:58.384Z,3.05
2017-12-22T17:52:25.878Z,2.55
2017-12-22T17:54:54.127Z,2.90
2017-12-22T17:57:21.656Z,2.58
2017-12-22T17:59:49.132Z,2.97
2017-12-22T18:02:16.626Z,3.42
2017-12-22T18:04:44.122Z,4.68
2017-12-22T18:07:11.623Z,4.32
2017-12-22T18:09:39.099Z,3.62
2017-12-22T18:12:07.355Z,2.97
2017-12-22T18:14:34.851Z,2.60
2017-12-22T18:17:02.337Z,6.15
2017-12-22T18:19:29.874Z,11.95
2017-12-22T18:21:57.355Z,8.10
2017-12-22T18:24:24.855Z,3.87
2017-12-22T18:26:52.337Z,4.32
2017-12-22T18:29:20.603Z,5.40
2017-12-22T18:31:48.080Z,6.28
2017-12-22T18:34:15.588Z,5.32
2017-12-22T18:36:43.663Z,4.95
2017-12-22T18:39:11.148Z,4.55
2017-12-22T18:41:38.648Z,5.10
2017-12-22T18:44:06.147Z,5.85
2017-12-22T18:46:33.652Z,6.68
2017-12-22T18:49:01.133Z,6.97
2017-12-22T18:51:28.628Z,6.32
2017-12-22T18:53:56.104Z,6.65
2017-12-22T18:56:24.967Z,7.15
2017-12-22T18:58:52.455Z,6.00
2017-12-22T19:01:19.955Z,8.18
2017-12-22T19:03:47.435Z,9.05
2017-12-22T19:06:14.911Z,9.25
2017-12-22T19:08:42.456Z,8.98
2017-12-22T19:11:09.939Z,6.70
2017-12-22T19:13:37.442Z,7.62
2017-12-22T19:16:04.915Z,6.18
2017-12-22T19:18:32.418Z,7.45
2017-12-22T19:20:59.895Z,6.53
2017-12-22T19:23:28.158Z,8.13
2017-12-22T19:25:56.416Z,6.53
2017-12-22T19:28:23.892Z,6.30
2017-12-22T19:30:51.388Z,6.75
2017-12-22T19:33:18.876Z,8.35
2017-12-22T19:35:46.395Z,7.93
2017-12-22T19:38:14.647Z,6.72
2017-12-22T19:40:42.147Z,8.07
2017-12-22T19:43:09.626Z,8.40
2017-12-22T19:45:37.128Z,7.20
2017-12-22T19:48:04.604Z,8.70
2017-12-22T19:50:32.852Z,7.57
2017-12-22T19:53:00.923Z,9.25
2017-12-22T19:55:28.907Z,9.95
2017-12-22T19:57:56.407Z,8.50
2017-12-22T20:00:23.891Z,8.38
2017-12-22T20:02:51.392Z,7.55
2017-12-22T20:05:19.641Z,10.63
2017-12-22T20:07:47.143Z,10.45
2017-12-22T20:10:15.395Z,8.15
2017-12-22T20:12:43.104Z,7.37
2017-12-22T20:15:10.578Z,7.97
2017-12-22T20:17:38.079Z,7.50
2017-12-22T20:20:05.569Z,10.95
2017-12-22T20:22:34.323Z,9.50
2017-12-22T20:25:02.583Z,11.35
2017-12-22T20:27:30.072Z,8.27
2017-12-22T20:29:58.331Z,9.80
2017-12-22T20:32:25.810Z,8.55
2017-12-22T20:34:54.080Z,8.13
2017-12-22T20:37:23.975Z,10.48
2017-12-22T20:39:53.129Z,9.50
2017-12-22T20:42:20.615Z,10.43
2017-12-22T20:44:48.115Z,7.30
2017-12-22T20:47:17.219Z,10.63
2017-12-22T20:49:45.463Z,9.43
2017-12-22T20:52:12.963Z,11.18
2017-12-22T20:54:41.208Z,10.18
2017-12-22T20:57:08.711Z,10.98
2017-12-22T20:59:36.196Z,10.88
2017-12-22T21:02:03.691Z,9.30
2017-12-22T21:04:31.176Z,10.80
2017-12-22T21:06:59.627Z,10.55
2017-12-22T21:09:27.102Z,10.57
2017-12-22T21:11:55.423Z,11.38
2017-12-22T21:14:22.919Z,6.80
2017-12-22T21:16:50.403Z,8.68
2017-12-22T21:19:17.930Z,8.70
2017-12-22T21:21:45.411Z,8.48
2017-12-22T21:24:13.675Z,8.38
2017-12-22T21:26:41.156Z,10.30
2017-12-22T21:29:09.415Z,9.65
2017-12-22T21:31:36.897Z,8.02
2017-12-22T21:34:05.136Z,8.35
2017-12-22T21:36:32.631Z,9.23
2017-12-22T21:39:00.875Z,8.43
2017-12-22T21:41:28.376Z,11.25
2017-12-22T21:43:55.877Z,7.82
2017-12-22T21:46:23.379Z,9.65
2017-12-22T21:48:51.619Z,7.47
2017-12-22T21:51:19.115Z,7.22
2017-12-22T21:53:47.356Z,9.38
2017-12-22T21:56:14.841Z,9.10
2017-12-22T21:58:42.339Z,8.63
2017-12-22T22:01:09.819Z,9.68
2017-12-22T22:03:37.316Z,9.40
2017-12-22T22:06:04.800Z,9.15
2017-12-22T22:08:33.063Z,11.80
2017-12-22T22:11:01.307Z,11.52
2017-12-22T22:13:28.807Z,8.88
2017-12-22T22:15:57.049Z,7.95
2017-12-22T22:18:24.555Z,11.75
2017-12-22T22:20:52.035Z,7.82
2017-12-22T22:23:19.523Z,9.27
2017-12-22T22:25:47.023Z,8.45
2017-12-22T22:28:14.507Z,6.80
2017-12-22T22:30:42.014Z,8.05
2017-12-22T22:33:09.495Z,5.80
2017-12-22T22:35:37.765Z,10.73
2017-12-22T22:38:06.015Z,8.25
2017-12-22T22:40:33.511Z,9.18
2017-12-22T22:43:01.761Z,8.85
2017-12-22T22:45:29.259Z,8.18
2017-12-22T22:47:56.735Z,9.30
2017-12-22T22:50:24.220Z,11.45
2017-12-22T22:52:51.724Z,11.82
2017-12-22T22:55:19.967Z,11.27
2017-12-22T22:57:47.503Z,9.13
2017-12-22T23:00:14.975Z,9.07
2017-12-22T23:02:42.467Z,8.10
2017-12-22T23:05:10.711Z,9.45
2017-12-22T23:07:38.216Z,13.25
2017-12-22T23:10:06.458Z,10.30
2017-12-22T23:12:33.943Z,10.90
2017-12-22T23:15:02.208Z,11.52
2017-12-22T23:17:29.692Z,13.25
2017-12-22T23:19:57.191Z,11.60
2017-12-22T23:22:24.679Z,7.28
2017-12-22T23:24:52.176Z,9.80
2017-12-22T23:27:19.656Z,8.93
2017-12-22T23:29:47.156Z,9.40
2017-12-22T23:32:14.632Z,9.10
2017-12-22T23:34:42.904Z,10.55
2017-12-22T23:37:11.148Z,8.70
2017-12-22T23:39:38.623Z,9.15
2017-12-22T23:42:06.128Z,11.57
2017-12-22T23:44:33.616Z,8.32
2017-12-22T23:47:01.119Z,8.80
2017-12-22T23:49:29.364Z,8.95
2017-12-22T23:51:56.863Z,9.05
2017-12-22T23:54:25.109Z,9.02
2017-12-22T23:56:52.606Z,7.68
2017-12-22T23:59:20.083Z,7.68
